sensor_id;sensor_type;location;lat;lon;timestamp;pressure;altitude;pressure_sealevel;temperature;humidity
78149;BME280;67396;42.664;23.382;2024-02-26T00:00:03;94551.38;;;9.14;75.57
78149;BME280;67396;42.664;23.382;2024-02-26T00:02:29;94554.97;;;9.35;75.22
78149;BME280;67396;42.664;23.382;2024-02-26T00:04:55;94543.63;;;9.37;75.50
78149;BME280;67396;42.664;23.382;2024-02-26T00:07:21;94543.63;;;9.37;75.67
78149;BME280;67396;42.664;23.382;2024-02-26T00:09:46;94540.47;;;9.28;75.35
78149;BME280;67396;42.664;23.382;2024-02-26T00:12:12;94537.31;;;9.26;76.22
78149;BME280;67396;42.664;23.382;2024-02-26T00:14:38;94535.78;;;9.32;75.54
78149;BME280;67396;42.664;23.382;2024-02-26T00:17:03;94539.69;;;9.27;75.73
78149;BME280;67396;42.664;23.382;2024-02-26T00:19:32;94543.63;;;9.44;74.78
78149;BME280;67396;42.664;23.382;2024-02-26T00:21:58;94534.25;;;9.52;74.55
78149;BME280;67396;42.664;23.382;2024-02-26T00:24:25;94524.84;;;9.39;74.79
78149;BME280;67396;42.664;23.382;2024-02-26T00:26:51;94532.28;;;9.42;74.85
78149;BME280;67396;42.664;23.382;2024-02-26T00:29:20;94538.56;;;9.50;74.47
78149;BME280;67396;42.664;23.382;2024-02-26T00:31:46;94541.31;;;9.46;74.50
78149;BME280;67396;42.664;23.382;2024-02-26T00:34:11;94526.81;;;9.46;74.55
78149;BME280;67396;42.664;23.382;2024-02-26T00:36:37;94525.66;;;9.54;74.18
78149;BME280;67396;42.664;23.382;2024-02-26T00:39:05;94522.09;;;9.42;74.60
78149;BME280;67396;42.664;23.382;2024-02-26T00:41:32;94516.22;;;9.33;75.21
78149;BME280;67396;42.664;23.382;2024-02-26T00:44:00;94520.94;;;9.43;74.46
78149;BME280;67396;42.664;23.382;2024-02-26T00:46:26;94519.38;;;9.42;74.48
78149;BME280;67396;42.664;23.382;2024-02-26T00:48:55;94513.91;;;9.46;74.69
78149;BME280;67396;42.664;23.382;2024-02-26T00:51:20;94513.13;;;9.53;74.07
78149;BME280;67396;42.664;23.382;2024-02-26T00:53:46;94509.22;;;9.47;74.60
78149;BME280;67396;42.664;23.382;2024-02-26T00:56:12;94506.84;;;9.41;73.64
78149;BME280;67396;42.664;23.382;2024-02-26T00:58:38;94500.97;;;9.50;72.52
78149;BME280;67396;42.664;23.382;2024-02-26T01:01:04;94508.44;;;9.53;72.79
78149;BME280;67396;42.664;23.382;2024-02-26T01:03:29;94491.97;;;9.42;72.87
78149;BME280;67396;42.664;23.382;2024-02-26T01:05:55;94490.44;;;9.56;72.31
78149;BME280;67396;42.664;23.382;2024-02-26T01:08:21;94496.69;;;9.60;72.32
78149;BME280;67396;42.664;23.382;2024-02-26T01:10:47;94494.75;;;9.64;72.39
78149;BME280;67396;42.664;23.382;2024-02-26T01:13:13;94492.41;;;9.62;73.01
78149;BME280;67396;42.664;23.382;2024-02-26T01:15:39;94488.88;;;9.58;73.56
78149;BME280;67396;42.664;23.382;2024-02-26T01:18:05;94498.25;;;9.61;73.91
78149;BME280;67396;42.664;23.382;2024-02-26T01:20:37;94497.50;;;9.71;73.53
78149;BME280;67396;42.664;23.382;2024-02-26T01:23:03;94495.16;;;9.73;73.38
78149;BME280;67396;42.664;23.382;2024-02-26T01:25:28;94484.97;;;9.63;73.40
78149;BME280;67396;42.664;23.382;2024-02-26T01:27:54;94481.84;;;9.64;73.52
78149;BME280;67396;42.664;23.382;2024-02-26T01:30:20;94482.22;;;9.56;73.90
78149;BME280;67396;42.664;23.382;2024-02-26T01:32:46;94481.41;;;9.59;73.71
78149;BME280;67396;42.664;23.382;2024-02-26T01:35:12;94487.28;;;9.43;74.70
78149;BME280;67396;42.664;23.382;2024-02-26T01:37:38;94483.34;;;9.30;74.97
78149;BME280;67396;42.664;23.382;2024-02-26T01:40:07;94480.16;;;9.10;76.13
78149;BME280;67396;42.664;23.382;2024-02-26T01:42:38;94491.94;;;9.14;76.21
78149;BME280;67396;42.664;23.382;2024-02-26T01:45:15;94481.34;;;9.05;76.69
78149;BME280;67396;42.664;23.382;2024-02-26T01:47:49;94487.47;;;8.81;77.44
78149;BME280;67396;42.664;23.382;2024-02-26T01:50:16;94483.97;;;8.81;77.31
78149;BME280;67396;42.664;23.382;2024-02-26T01:52:42;94480.09;;;8.89;77.13
78149;BME280;67396;42.664;23.382;2024-02-26T01:55:08;94469.91;;;8.89;77.70
78149;BME280;67396;42.664;23.382;2024-02-26T01:57:37;94478.53;;;8.91;77.61
78149;BME280;67396;42.664;23.382;2024-02-26T02:00:03;94476.50;;;8.74;78.08
78149;BME280;67396;42.664;23.382;2024-02-26T02:02:31;94476.91;;;8.80;77.77
78149;BME280;67396;42.664;23.382;2024-02-26T02:04:57;94471.50;;;8.90;76.79
78149;BME280;67396;42.664;23.382;2024-02-26T02:07:23;94473.09;;;9.02;76.30
78149;BME280;67396;42.664;23.382;2024-02-26T02:09:50;94468.41;;;9.06;75.73
78149;BME280;67396;42.664;23.382;2024-02-26T02:12:16;94463.75;;;9.14;75.73
78149;BME280;67396;42.664;23.382;2024-02-26T02:14:42;94473.91;;;9.17;75.04
78149;BME280;67396;42.664;23.382;2024-02-26T02:17:08;94464.44;;;8.89;77.11
78149;BME280;67396;42.664;23.382;2024-02-26T02:19:33;94471.13;;;8.92;76.81
78149;BME280;67396;42.664;23.382;2024-02-26T02:21:59;94469.19;;;8.99;76.53
78149;BME280;67396;42.664;23.382;2024-02-26T02:24:28;94468.41;;;8.95;76.67
78149;BME280;67396;42.664;23.382;2024-02-26T02:26:55;94468.38;;;8.99;76.67
78149;BME280;67396;42.664;23.382;2024-02-26T02:29:21;94461.38;;;9.05;76.32
78149;BME280;67396;42.664;23.382;2024-02-26T02:31:47;94467.66;;;9.16;76.27
78149;BME280;67396;42.664;23.382;2024-02-26T02:34:13;94472.34;;;9.16;76.01
78149;BME280;67396;42.664;23.382;2024-02-26T02:36:58;94466.50;;;9.17;76.23
78149;BME280;67396;42.664;23.382;2024-02-26T02:39:23;94464.94;;;9.13;76.53
78149;BME280;67396;42.664;23.382;2024-02-26T02:41:49;94477.44;;;9.17;76.40
78149;BME280;67396;42.664;23.382;2024-02-26T02:44:15;94462.19;;;9.20;76.44
78149;BME280;67396;42.664;23.382;2024-02-26T02:46:41;94475.91;;;9.23;76.81
78149;BME280;67396;42.664;23.382;2024-02-26T02:49:10;94470.06;;;9.32;76.01
78149;BME280;67396;42.664;23.382;2024-02-26T02:51:37;94475.53;;;9.42;75.64
78149;BME280;67396;42.664;23.382;2024-02-26T02:54:05;94471.22;;;9.31;75.98
78149;BME280;67396;42.664;23.382;2024-02-26T02:56:31;94471.63;;;9.43;75.51
78149;BME280;67396;42.664;23.382;2024-02-26T02:58:57;94470.88;;;9.54;75.11
78149;BME280;67396;42.664;23.382;2024-02-26T03:01:26;94476.34;;;9.61;74.11
78149;BME280;67396;42.664;23.382;2024-02-26T03:03:52;94477.13;;;9.54;74.27
78149;BME280;67396;42.664;23.382;2024-02-26T03:06:18;94479.47;;;9.45;75.26
78149;BME280;67396;42.664;23.382;2024-02-26T03:08:44;94481.81;;;9.54;74.95
78149;BME280;67396;42.664;23.382;2024-02-26T03:11:14;94479.81;;;9.33;76.32
78149;BME280;67396;42.664;23.382;2024-02-26T03:13:41;94489.16;;;9.11;76.38
78149;BME280;67396;42.664;23.382;2024-02-26T03:16:06;94491.38;;;8.73;78.83
78149;BME280;67396;42.664;23.382;2024-02-26T03:18:32;94484.03;;;8.95;78.57
78149;BME280;67396;42.664;23.382;2024-02-26T03:20:58;94490.72;;;9.08;77.47
78149;BME280;67396;42.664;23.382;2024-02-26T03:23:24;94484.09;;;9.20;76.81
78149;BME280;67396;42.664;23.382;2024-02-26T03:25:50;94474.75;;;9.31;76.15
78149;BME280;67396;42.664;23.382;2024-02-26T03:28:18;94472.41;;;9.37;76.30
78149;BME280;67396;42.664;23.382;2024-02-26T03:30:47;94468.91;;;9.40;76.31
78149;BME280;67396;42.664;23.382;2024-02-26T03:33:13;94462.59;;;9.25;76.41
78149;BME280;67396;42.664;23.382;2024-02-26T03:35:38;94466.16;;;9.36;76.21
78149;BME280;67396;42.664;23.382;2024-02-26T03:38:04;94469.28;;;9.31;76.42
78149;BME280;67396;42.664;23.382;2024-02-26T03:40:30;94456.75;;;9.37;76.08
78149;BME280;67396;42.664;23.382;2024-02-26T03:42:57;94466.94;;;9.40;75.29
78149;BME280;67396;42.664;23.382;2024-02-26T03:45:23;94460.63;;;9.26;75.98
78149;BME280;67396;42.664;23.382;2024-02-26T03:47:53;94468.44;;;9.17;76.57
78149;BME280;67396;42.664;23.382;2024-02-26T03:50:18;94458.25;;;9.10;76.98
78149;BME280;67396;42.664;23.382;2024-02-26T03:52:44;94459.84;;;9.15;76.33
78149;BME280;67396;42.664;23.382;2024-02-26T03:55:10;94462.59;;;9.22;75.58
78149;BME280;67396;42.664;23.382;2024-02-26T03:57:36;94456.34;;;9.28;74.83
78149;BME280;67396;42.664;23.382;2024-02-26T04:00:01;94455.97;;;9.30;73.87
78149;BME280;67396;42.664;23.382;2024-02-26T04:02:28;94457.13;;;9.32;74.17
78149;BME280;67396;42.664;23.382;2024-02-26T04:04:54;94467.31;;;9.32;75.05
78149;BME280;67396;42.664;23.382;2024-02-26T04:07:20;94448.91;;;9.25;75.78
78149;BME280;67396;42.664;23.382;2024-02-26T04:09:45;94449.69;;;9.22;76.56
78149;BME280;67396;42.664;23.382;2024-02-26T04:12:12;94455.13;;;9.15;77.07
78149;BME280;67396;42.664;23.382;2024-02-26T04:14:37;94451.25;;;9.23;75.70
78149;BME280;67396;42.664;23.382;2024-02-26T04:17:06;94451.28;;;9.30;74.05
78149;BME280;67396;42.664;23.382;2024-02-26T04:19:32;94444.63;;;9.31;73.26
78149;BME280;67396;42.664;23.382;2024-02-26T04:21:59;94444.97;;;9.19;72.95
78149;BME280;67396;42.664;23.382;2024-02-26T04:24:25;94442.09;;;8.66;74.75
78149;BME280;67396;42.664;23.382;2024-02-26T04:26:51;94439.69;;;8.54;75.70
78149;BME280;67396;42.664;23.382;2024-02-26T04:29:17;94436.22;;;8.60;75.35
78149;BME280;67396;42.664;23.382;2024-02-26T04:31:43;94436.94;;;8.50;75.92
78149;BME280;67396;42.664;23.382;2024-02-26T04:34:09;94446.28;;;8.42;76.40
78149;BME280;67396;42.664;23.382;2024-02-26T04:36:37;94437.66;;;8.37;76.00
78149;BME280;67396;42.664;23.382;2024-02-26T04:39:02;94448.13;;;8.24;76.79
78149;BME280;67396;42.664;23.382;2024-02-26T04:41:28;94449.38;;;8.34;76.47
78149;BME280;67396;42.664;23.382;2024-02-26T04:43:54;94443.91;;;8.37;76.26
78149;BME280;67396;42.664;23.382;2024-02-26T04:46:20;94447.84;;;8.43;76.54
78149;BME280;67396;42.664;23.382;2024-02-26T04:48:47;94444.38;;;8.53;77.40
78149;BME280;67396;42.664;23.382;2024-02-26T04:51:16;94454.16;;;8.54;78.14
78149;BME280;67396;42.664;23.382;2024-02-26T04:53:42;94450.63;;;8.54;78.36
78149;BME280;67396;42.664;23.382;2024-02-26T04:56:08;94450.25;;;8.55;78.98
78149;BME280;67396;42.664;23.382;2024-02-26T04:58:34;94449.47;;;8.51;78.89
78149;BME280;67396;42.664;23.382;2024-02-26T05:01:00;94452.94;;;8.48;79.03
78149;BME280;67396;42.664;23.382;2024-02-26T05:03:26;94452.53;;;8.46;79.40
78149;BME280;67396;42.664;23.382;2024-02-26T05:05:52;94461.91;;;8.45;79.48
78149;BME280;67396;42.664;23.382;2024-02-26T05:08:18;94460.25;;;8.30;80.41
78149;BME280;67396;42.664;23.382;2024-02-26T05:10:45;94465.00;;;8.33;81.68
78149;BME280;67396;42.664;23.382;2024-02-26T05:13:11;94467.34;;;8.35;80.71
78149;BME280;67396;42.664;23.382;2024-02-26T05:15:37;94468.38;;;8.16;81.18
78149;BME280;67396;42.664;23.382;2024-02-26T05:18:03;94472.13;;;7.93;82.20
78149;BME280;67396;42.664;23.382;2024-02-26T05:20:29;94477.22;;;7.95;82.08
78149;BME280;67396;42.664;23.382;2024-02-26T05:22:55;94484.16;;;7.85;83.32
78149;BME280;67396;42.664;23.382;2024-02-26T05:25:24;94483.47;;;7.96;82.74
78149;BME280;67396;42.664;23.382;2024-02-26T05:27:50;94484.22;;;7.92;82.63
78149;BME280;67396;42.664;23.382;2024-02-26T05:30:16;94489.78;;;8.07;82.88
78149;BME280;67396;42.664;23.382;2024-02-26T05:32:42;94490.25;;;8.19;84.11
78149;BME280;67396;42.664;23.382;2024-02-26T05:35:08;94500.84;;;8.28;85.03
78149;BME280;67396;42.664;23.382;2024-02-26T05:37:34;94500.81;;;8.21;82.98
78149;BME280;67396;42.664;23.382;2024-02-26T05:40:00;94508.09;;;8.03;83.18
78149;BME280;67396;42.664;23.382;2024-02-26T05:42:25;94508.44;;;7.94;83.38
78149;BME280;67396;42.664;23.382;2024-02-26T05:44:51;94517.00;;;7.89;83.85
78149;BME280;67396;42.664;23.382;2024-02-26T05:47:20;94514.22;;;7.85;84.94
78149;BME280;67396;42.664;23.382;2024-02-26T05:49:46;94514.81;;;8.12;84.18
78149;BME280;67396;42.664;23.382;2024-02-26T05:52:12;94505.59;;;8.31;82.42
78149;BME280;67396;42.664;23.382;2024-02-26T05:54:38;94506.50;;;8.49;81.97
78149;BME280;67396;42.664;23.382;2024-02-26T05:57:03;94510.38;;;8.48;81.52
78149;BME280;67396;42.664;23.382;2024-02-26T05:59:29;94509.97;;;8.46;81.31
78149;BME280;67396;42.664;23.382;2024-02-26T06:01:58;94515.47;;;8.53;81.61
78149;BME280;67396;42.664;23.382;2024-02-26T06:04:24;94520.19;;;8.56;80.75
78149;BME280;67396;42.664;23.382;2024-02-26T06:06:49;94525.31;;;8.61;80.72
78149;BME280;67396;42.664;23.382;2024-02-26T06:09:15;94514.00;;;8.66;79.94
78149;BME280;67396;42.664;23.382;2024-02-26T06:11:41;94520.66;;;8.73;79.66
78149;BME280;67396;42.664;23.382;2024-02-26T06:14:07;94530.09;;;8.79;79.37
78149;BME280;67396;42.664;23.382;2024-02-26T06:16:32;94522.34;;;8.91;78.71
78149;BME280;67396;42.664;23.382;2024-02-26T06:18:59;94529.44;;;9.03;78.43
78149;BME280;67396;42.664;23.382;2024-02-26T06:21:25;94533.34;;;9.05;78.23
78149;BME280;67396;42.664;23.382;2024-02-26T06:23:51;94527.84;;;9.02;78.70
78149;BME280;67396;42.664;23.382;2024-02-26T06:26:17;94523.94;;;9.03;78.53
78149;BME280;67396;42.664;23.382;2024-02-26T06:28:43;94526.28;;;9.01;78.73
78149;BME280;67396;42.664;23.382;2024-02-26T06:31:10;94527.91;;;9.16;77.80
78149;BME280;67396;42.664;23.382;2024-02-26T06:33:35;94529.13;;;9.29;76.24
78149;BME280;67396;42.664;23.382;2024-02-26T06:36:01;94523.28;;;9.38;75.87
78149;BME280;67396;42.664;23.382;2024-02-26T06:38:27;94534.63;;;9.36;75.98
78149;BME280;67396;42.664;23.382;2024-02-26T06:40:56;94528.75;;;9.34;76.08
78149;BME280;67396;42.664;23.382;2024-02-26T06:43:22;94529.94;;;9.37;75.48
78149;BME280;67396;42.664;23.382;2024-02-26T06:45:48;94533.47;;;9.41;74.87
78149;BME280;67396;42.664;23.382;2024-02-26T06:48:13;94524.84;;;9.42;75.51
78149;BME280;67396;42.664;23.382;2024-02-26T06:50:39;94528.34;;;9.36;75.82
78149;BME280;67396;42.664;23.382;2024-02-26T06:53:06;94529.13;;;9.33;76.42
78149;BME280;67396;42.664;23.382;2024-02-26T06:55:32;94525.22;;;9.30;77.07
78149;BME280;67396;42.664;23.382;2024-02-26T06:57:58;94520.53;;;9.41;76.17
78149;BME280;67396;42.664;23.382;2024-02-26T07:00:27;94525.63;;;9.50;75.95
78149;BME280;67396;42.664;23.382;2024-02-26T07:02:53;94529.59;;;9.56;75.03
78149;BME280;67396;42.664;23.382;2024-02-26T07:05:19;94538.53;;;9.42;76.42
78149;BME280;67396;42.664;23.382;2024-02-26T07:07:45;94531.88;;;9.29;77.24
78149;BME280;67396;42.664;23.382;2024-02-26T07:10:11;94534.91;;;9.06;78.64
78149;BME280;67396;42.664;23.382;2024-02-26T07:12:38;94532.22;;;9.14;78.88
78149;BME280;67396;42.664;23.382;2024-02-26T07:15:04;94548.28;;;9.33;77.14
78149;BME280;67396;42.664;23.382;2024-02-26T07:17:32;94546.75;;;9.39;76.22
78149;BME280;67396;42.664;23.382;2024-02-26T07:19:59;94545.22;;;9.45;75.99
78149;BME280;67396;42.664;23.382;2024-02-26T07:22:25;94547.56;;;9.50;75.64
78149;BME280;67396;42.664;23.382;2024-02-26T07:24:51;94549.97;;;9.80;92.66
78149;BME280;67396;42.664;23.382;2024-02-26T07:27:20;94544.53;;;10.40;86.63
78149;BME280;67396;42.664;23.382;2024-02-26T07:29:46;94548.38;;;10.85;83.59
78149;BME280;67396;42.664;23.382;2024-02-26T07:32:12;94543.09;;;11.34;76.75
78149;BME280;67396;42.664;23.382;2024-02-26T07:34:38;94543.31;;;11.75;74.34
78149;BME280;67396;42.664;23.382;2024-02-26T07:37:08;94538.47;;;11.93;68.99
78149;BME280;67396;42.664;23.382;2024-02-26T07:39:34;94544.81;;;11.86;66.50
78149;BME280;67396;42.664;23.382;2024-02-26T07:42:00;94549.69;;;11.50;67.09
78149;BME280;67396;42.664;23.382;2024-02-26T07:44:25;94549.81;;;11.25;67.23
78149;BME280;67396;42.664;23.382;2024-02-26T07:46:51;94552.22;;;11.13;68.42
78149;BME280;67396;42.664;23.382;2024-02-26T07:49:17;94553.06;;;10.96;68.91
78149;BME280;67396;42.664;23.382;2024-02-26T07:51:43;94557.00;;;10.87;70.07
78149;BME280;67396;42.664;23.382;2024-02-26T07:54:09;94550.34;;;10.81;70.86
78149;BME280;67396;42.664;23.382;2024-02-26T07:56:35;94552.28;;;10.84;70.19
78149;BME280;67396;42.664;23.382;2024-02-26T07:59:00;94546.03;;;10.77;70.51
78149;BME280;67396;42.664;23.382;2024-02-26T08:01:26;94548.00;;;10.76;70.81
78149;BME280;67396;42.664;23.382;2024-02-26T08:03:55;94545.28;;;10.73;71.28
78149;BME280;67396;42.664;23.382;2024-02-26T08:06:21;94539.78;;;10.69;70.45
78149;BME280;67396;42.664;23.382;2024-02-26T08:08:47;94548.41;;;10.68;69.16
78149;BME280;67396;42.664;23.382;2024-02-26T08:11:16;94539.00;;;10.65;68.56
78149;BME280;67396;42.664;23.382;2024-02-26T08:13:42;94533.53;;;10.47;68.96
78149;BME280;67396;42.664;23.382;2024-02-26T08:16:08;94533.53;;;10.58;69.49
78149;BME280;67396;42.664;23.382;2024-02-26T08:18:33;94532.72;;;10.68;69.34
78149;BME280;67396;42.664;23.382;2024-02-26T08:20:59;94545.63;;;10.85;68.20
78149;BME280;67396;42.664;23.382;2024-02-26T08:23:25;94539.31;;;10.96;68.30
78149;BME280;67396;42.664;23.382;2024-02-26T08:25:51;94536.53;;;11.03;68.48
78149;BME280;67396;42.664;23.382;2024-02-26T08:28:17;94544.00;;;11.06;67.99
78149;BME280;67396;42.664;23.382;2024-02-26T08:30:43;94540.06;;;11.07;69.05
78149;BME280;67396;42.664;23.382;2024-02-26T08:33:09;94543.59;;;11.04;68.46
78149;BME280;67396;42.664;23.382;2024-02-26T08:35:36;94536.94;;;11.05;68.37
78149;BME280;67396;42.664;23.382;2024-02-26T08:38:02;94541.66;;;11.08;68.10
78149;BME280;67396;42.664;23.382;2024-02-26T08:40:29;94542.78;;;11.10;68.35
78149;BME280;67396;42.664;23.382;2024-02-26T08:42:54;94536.16;;;11.04;68.74
78149;BME280;67396;42.664;23.382;2024-02-26T08:45:21;94534.16;;;11.08;68.90
78149;BME280;67396;42.664;23.382;2024-02-26T08:47:46;94531.03;;;11.17;68.51
78149;BME280;67396;42.664;23.382;2024-02-26T08:50:13;94531.75;;;11.24;68.85
78149;BME280;67396;42.664;23.382;2024-02-26T08:52:39;94536.03;;;11.32;67.97
78149;BME280;67396;42.664;23.382;2024-02-26T08:55:08;94532.09;;;11.37;66.90
78149;BME280;67396;42.664;23.382;2024-02-26T08:57:35;94536.00;;;11.43;67.10
78149;BME280;67396;42.664;23.382;2024-02-26T09:00:03;94548.53;;;11.44;66.92
78149;BME280;67396;42.664;23.382;2024-02-26T09:02:29;94540.75;;;11.32;66.91
78149;BME280;67396;42.664;23.382;2024-02-26T09:04:55;94533.69;;;11.27;67.34
78149;BME280;67396;42.664;23.382;2024-02-26T09:07:22;94537.22;;;11.31;67.23
78149;BME280;67396;42.664;23.382;2024-02-26T09:09:48;94527.81;;;11.29;67.30
78149;BME280;67396;42.664;23.382;2024-02-26T09:12:14;94527.81;;;11.29;67.60
78149;BME280;67396;42.664;23.382;2024-02-26T09:14:39;94529.41;;;11.23;68.07
78149;BME280;67396;42.664;23.382;2024-02-26T09:17:05;94532.91;;;11.27;67.74
78149;BME280;67396;42.664;23.382;2024-02-26T09:19:34;94521.91;;;11.34;67.13
78149;BME280;67396;42.664;23.382;2024-02-26T09:21:59;94520.25;;;11.44;67.00
78149;BME280;67396;42.664;23.382;2024-02-26T09:24:26;94515.97;;;11.43;66.89
78149;BME280;67396;42.664;23.382;2024-02-26T09:26:52;94516.78;;;11.40;66.51
78149;BME280;67396;42.664;23.382;2024-02-26T09:29:18;94518.34;;;11.41;67.32
78149;BME280;67396;42.664;23.382;2024-02-26T09:31:46;94510.84;;;11.45;67.51
78149;BME280;67396;42.664;23.382;2024-02-26T09:34:13;94513.94;;;11.57;67.32
78149;BME280;67396;42.664;23.382;2024-02-26T09:36:39;94516.56;;;11.72;64.93
78149;BME280;67396;42.664;23.382;2024-02-26T09:39:05;94509.13;;;11.76;64.68
78149;BME280;67396;42.664;23.382;2024-02-26T09:41:37;94501.25;;;11.78;64.58
78149;BME280;67396;42.664;23.382;2024-02-26T09:44:04;94499.19;;;11.89;64.47
78149;BME280;67396;42.664;23.382;2024-02-26T09:46:31;94494.41;;;11.96;64.25
78149;BME280;67396;42.664;23.382;2024-02-26T09:48:57;94496.81;;;11.94;63.32
78149;BME280;67396;42.664;23.382;2024-02-26T09:51:23;94506.41;;;11.65;63.88
78149;BME280;67396;42.664;23.382;2024-02-26T09:53:54;94499.44;;;11.50;64.95
78149;BME280;67396;42.664;23.382;2024-02-26T09:56:23;94493.91;;;11.57;64.80
78149;BME280;67396;42.664;23.382;2024-02-26T09:58:52;94495.41;;;11.68;63.69
78149;BME280;67396;42.664;23.382;2024-02-26T10:01:20;94496.25;;;11.58;64.13
78149;BME280;67396;42.664;23.382;2024-02-26T10:03:57;94500.19;;;11.57;63.65
78149;BME280;67396;42.664;23.382;2024-02-26T10:06:26;94505.34;;;11.48;64.06
78149;BME280;67396;42.664;23.382;2024-02-26T10:08:53;94491.47;;;11.66;63.58
78149;BME280;67396;42.664;23.382;2024-02-26T10:11:19;94499.28;;;11.71;63.19
78149;BME280;67396;42.664;23.382;2024-02-26T10:13:46;94498.47;;;11.81;63.32
78149;BME280;67396;42.664;23.382;2024-02-26T10:16:11;94493.00;;;11.70;63.74
78149;BME280;67396;42.664;23.382;2024-02-26T10:18:49;94486.63;;;11.88;63.35
78149;BME280;67396;42.664;23.382;2024-02-26T10:21:16;94477.91;;;11.96;62.86
78149;BME280;67396;42.664;23.382;2024-02-26T10:23:44;94488.41;;;12.12;62.02
78149;BME280;67396;42.664;23.382;2024-02-26T10:26:16;94485.69;;;12.12;61.87
78149;BME280;67396;42.664;23.382;2024-02-26T10:28:43;94474.53;;;12.26;61.58
78149;BME280;67396;42.664;23.382;2024-02-26T10:31:10;94467.34;;;12.39;61.50
78149;BME280;67396;42.664;23.382;2024-02-26T10:33:37;94475.91;;;12.49;61.02
78149;BME280;67396;42.664;23.382;2024-02-26T10:36:07;94466.00;;;12.55;60.73
78149;BME280;67396;42.664;23.382;2024-02-26T10:38:34;94464.13;;;12.44;60.59
78149;BME280;67396;42.664;23.382;2024-02-26T10:41:13;94463.94;;;12.62;59.88
78149;BME280;67396;42.664;23.382;2024-02-26T10:43:42;94467.09;;;12.61;59.98
78149;BME280;67396;42.664;23.382;2024-02-26T10:46:09;94451.84;;;12.53;59.82
78149;BME280;67396;42.664;23.382;2024-02-26T10:48:35;94454.53;;;12.60;59.97
78149;BME280;67396;42.664;23.382;2024-02-26T10:51:01;94455.13;;;12.40;59.96
78149;BME280;67396;42.664;23.382;2024-02-26T10:53:29;94452.22;;;12.17;60.47
78149;BME280;67396;42.664;23.382;2024-02-26T10:56:04;94445.13;;;12.20;60.37
78149;BME280;67396;42.664;23.382;2024-02-26T10:58:31;94455.03;;;12.10;60.85
78149;BME280;67396;42.664;23.382;2024-02-26T11:00:58;94452.69;;;12.09;60.33
78149;BME280;67396;42.664;23.382;2024-02-26T11:03:25;94438.50;;;12.14;59.96
78149;BME280;67396;42.664;23.382;2024-02-26T11:05:52;94439.22;;;12.18;60.05
78149;BME280;67396;42.664;23.382;2024-02-26T11:08:21;94446.91;;;12.37;60.13
78149;BME280;67396;42.664;23.382;2024-02-26T11:10:52;94444.09;;;12.44;59.75
78149;BME280;67396;42.664;23.382;2024-02-26T11:13:19;94452.97;;;12.59;59.11
78149;BME280;67396;42.664;23.382;2024-02-26T11:15:48;94440.69;;;12.67;59.19
78149;BME280;67396;42.664;23.382;2024-02-26T11:18:16;94453.81;;;12.56;58.65
78149;BME280;67396;42.664;23.382;2024-02-26T11:20:42;94436.59;;;12.44;58.97
78149;BME280;67396;42.664;23.382;2024-02-26T11:23:09;94441.94;;;12.59;58.39
78149;BME280;67396;42.664;23.382;2024-02-26T11:25:35;94440.31;;;12.65;58.24
78149;BME280;67396;42.664;23.382;2024-02-26T11:28:05;94441.03;;;12.72;58.41
78149;BME280;67396;42.664;23.382;2024-02-26T11:30:34;94442.78;;;12.56;58.95
78149;BME280;67396;42.664;23.382;2024-02-26T11:33:03;94434.41;;;12.66;58.75
78149;BME280;67396;42.664;23.382;2024-02-26T11:35:30;94438.50;;;12.51;57.83
78149;BME280;67396;42.664;23.382;2024-02-26T11:37:57;94448.25;;;12.59;57.82
78149;BME280;67396;42.664;23.382;2024-02-26T11:40:26;94432.66;;;12.46;58.69
78149;BME280;67396;42.664;23.382;2024-02-26T11:42:54;94436.91;;;12.54;58.98
78149;BME280;67396;42.664;23.382;2024-02-26T11:48:11;94432.75;;;12.72;57.98
78149;BME280;67396;42.664;23.382;2024-02-26T11:50:40;94423.94;;;12.85;57.70
78149;BME280;67396;42.664;23.382;2024-02-26T11:55:47;94423.13;;;12.57;57.66
78149;BME280;67396;42.664;23.382;2024-02-26T11:58:18;94425.09;;;12.57;57.96
78149;BME280;67396;42.664;23.382;2024-02-26T12:00:44;94421.88;;;12.62;57.96
78149;BME280;67396;42.664;23.382;2024-02-26T12:03:10;94416.75;;;12.60;57.44
78149;BME280;67396;42.664;23.382;2024-02-26T12:05:37;94423.94;;;12.51;57.47
78149;BME280;67396;42.664;23.382;2024-02-26T12:08:06;94435.63;;;12.62;56.86
78149;BME280;67396;42.664;23.382;2024-02-26T12:10:37;94427.88;;;12.50;57.28
78149;BME280;67396;42.664;23.382;2024-02-26T12:13:12;94423.63;;;12.45;56.72
78149;BME280;67396;42.664;23.382;2024-02-26T12:15:56;94428.16;;;12.62;55.13
78149;BME280;67396;42.664;23.382;2024-02-26T12:18:23;94430.78;;;12.73;55.03
78149;BME280;67396;42.664;23.382;2024-02-26T12:21:02;94423.16;;;12.84;55.37
78149;BME280;67396;42.664;23.382;2024-02-26T12:23:31;94416.66;;;12.71;55.87
78149;BME280;67396;42.664;23.382;2024-02-26T12:26:01;94419.72;;;12.76;56.04
78149;BME280;67396;42.664;23.382;2024-02-26T12:28:31;94418.88;;;12.83;55.18
78149;BME280;67396;42.664;23.382;2024-02-26T12:30:57;94421.16;;;12.88;55.48
78149;BME280;67396;42.664;23.382;2024-02-26T12:33:25;94425.75;;;12.98;55.05
78149;BME280;67396;42.664;23.382;2024-02-26T12:35:53;94425.84;;;12.91;53.87
78149;BME280;67396;42.664;23.382;2024-02-26T12:38:18;94424.22;;;12.94;54.05
78149;BME280;67396;42.664;23.382;2024-02-26T12:40:45;94422.53;;;13.03;53.92
78149;BME280;67396;42.664;23.382;2024-02-26T12:43:11;94425.88;;;13.22;53.23
78149;BME280;67396;42.664;23.382;2024-02-26T12:45:40;94416.03;;;13.21;51.40
78149;BME280;67396;42.664;23.382;2024-02-26T12:48:06;94419.81;;;13.34;51.24
78149;BME280;67396;42.664;23.382;2024-02-26T12:50:36;94417.31;;;13.43;50.07
78149;BME280;67396;42.664;23.382;2024-02-26T12:53:02;94413.47;;;13.37;50.24
78149;BME280;67396;42.664;23.382;2024-02-26T12:55:31;94411.19;;;13.28;51.69
78149;BME280;67396;42.664;23.382;2024-02-26T12:58:00;94419.84;;;13.30;51.80